Columbia Falls, MT (59912)

6:53 PM MDT on May 29, 2015 (GMT -0600)
Tamarack Lane | | Change Station
CLOSE
Current Station
Personal Weather Station
Location: Columbia Falls, Mt
Elevation: 3133 ft
Nearby Weather Stations

Elev 3133 ft 48.38 °N, 114.19 °W | Updated 13 minutes ago

Clear
Clear
78.8 °F
Feels Like 79 °F
N
0.9
Wind Variable Wind from North
Gusts 0.9 mph

Today
High -- | Low -- °F
--% Chance of Precip.
Yesterday
High -- | Low -- °F
Precip. -- in
5:42 AM 9:26 PM
Waxing Gibbous, 87% visible
Pressure 30.14 in
Visibility 10.0 miles
Clouds Few 11000 ft
Heat Index 79 °F
Dew Point 46 °F
Humidity 31%
Rainfall 0.00 in
Snow Depth Not available.
UV 3 out of 12
Pollen 8.00 out of 12
Air Quality Not available.
Flu Activity Sporadic
METAR KCTB 292356Z AUTO 15010KT 10SM FEW110 16/08 A3013 RMK AO2 SLP204 T01610083 10167 20106 58014

More Conditions Fewer Conditions

Pressure 30.14 in
Visibility 10.0 miles
Clouds Few 11000 ft
Heat Index 79 °F
Dew Point 46 °F
Humidity 31%
Rainfall 0.00 in
Snow Depth Not available.
UV 3 out of 12
Pollen 8.00 out of 12
Air Quality Not available.
Flu Activity Sporadic
METAR KCTB 292356Z AUTO 15010KT 10SM FEW110 16/08 A3013 RMK AO2 SLP204 T01610083 10167 20106 58014

More Conditions Fewer Conditions

10-Day Weather Forecast

Almanac

Astronomy

May. 29, 2015 Rise Set
Actual Time
Civil Twilight
Nautical Twilight
Astronomical Twilight
Moon
Length of Visible Light
Length of Day
Tomorrow will be .
, % of the Moon is Illuminated

Today's Extremes

State Highs State Lows

Community

WunderPhotos

Upload Photos

1,825,411 photos uploaded!

WunderBlogs® & News

Nearby

Air Quality

  Air Quality AQ Index Pollutant
Not available.

Snow Depth

Station Depth Elevation

Earthquake Activity

City Distance Mag. Time & Date
Minimum magnitude displayed is 2.5.

Coastal Water Temperatures

Place Temperature

Stations

Nearby Weather Stations

Station Location Temp. Windchill Dew Point Humidity Wind Precip. Elev Updated Type